sensor_id;sensor_type;location;lat;lon;timestamp;P1;durP1;ratioP1;P2;durP2;ratioP2
46290;SDS011;32023;44.444;26.006;2022-12-10T00:05:23;136.00;;;30.13;;
46290;SDS011;32023;44.444;26.006;2022-12-10T00:07:50;129.02;;;34.17;;
46290;SDS011;32023;44.444;26.006;2022-12-10T00:10:18;165.00;;;33.92;;
46290;SDS011;32023;44.444;26.006;2022-12-10T00:12:56;110.50;;;31.80;;
46290;SDS011;32023;44.444;26.006;2022-12-10T00:22:02;116.45;;;27.92;;
46290;SDS011;32023;44.444;26.006;2022-12-10T00:25:00;83.55;;;28.17;;
46290;SDS011;32023;44.444;26.006;2022-12-10T00:35:34;113.82;;;28.15;;
46290;SDS011;32023;44.444;26.006;2022-12-10T00:38:25;84.57;;;30.80;;
46290;SDS011;32023;44.444;26.006;2022-12-10T00:43:54;93.55;;;29.67;;
46290;SDS011;32023;44.444;26.006;2022-12-10T00:50:14;111.45;;;30.73;;
46290;SDS011;32023;44.444;26.006;2022-12-10T00:52:53;133.95;;;28.88;;
46290;SDS011;32023;44.444;26.006;2022-12-10T00:55:55;110.57;;;30.92;;
46290;SDS011;32023;44.444;26.006;2022-12-10T00:58:26;108.03;;;33.88;;
46290;SDS011;32023;44.444;26.006;2022-12-10T01:19:52;86.05;;;27.73;;
46290;SDS011;32023;44.444;26.006;2022-12-10T01:22:28;81.15;;;28.50;;
46290;SDS011;32023;44.444;26.006;2022-12-10T01:58:24;86.57;;;28.15;;
46290;SDS011;32023;44.444;26.006;2022-12-10T02:14:27;66.32;;;26.27;;
46290;SDS011;32023;44.444;26.006;2022-12-10T02:28:03;46.35;;;23.00;;
46290;SDS011;32023;44.444;26.006;2022-12-10T02:47:38;43.63;;;24.38;;
46290;SDS011;32023;44.444;26.006;2022-12-10T02:50:09;40.33;;;22.13;;
46290;SDS011;32023;44.444;26.006;2022-12-10T02:57:54;51.13;;;27.05;;
46290;SDS011;32023;44.444;26.006;2022-12-10T03:23:24;36.70;;;20.58;;
46290;SDS011;32023;44.444;26.006;2022-12-10T03:41:29;39.88;;;24.27;;
46290;SDS011;32023;44.444;26.006;2022-12-10T03:55:01;46.22;;;27.13;;
46290;SDS011;32023;44.444;26.006;2022-12-10T03:57:35;48.80;;;26.10;;
46290;SDS011;32023;44.444;26.006;2022-12-10T04:17:19;40.35;;;24.10;;
46290;SDS011;32023;44.444;26.006;2022-12-10T04:23:16;37.10;;;23.20;;
46290;SDS011;32023;44.444;26.006;2022-12-10T04:37:59;38.85;;;23.85;;
46290;SDS011;32023;44.444;26.006;2022-12-10T04:40:35;39.05;;;23.48;;
46290;SDS011;32023;44.444;26.006;2022-12-10T04:46:26;42.15;;;23.83;;
46290;SDS011;32023;44.444;26.006;2022-12-10T04:52:47;43.97;;;23.27;;
46290;SDS011;32023;44.444;26.006;2022-12-10T04:55:25;44.72;;;24.77;;
46290;SDS011;32023;44.444;26.006;2022-12-10T04:58:03;37.80;;;21.88;;
46290;SDS011;32023;44.444;26.006;2022-12-10T05:04:14;36.60;;;22.40;;
46290;SDS011;32023;44.444;26.006;2022-12-10T05:09:23;35.30;;;21.90;;
46290;SDS011;32023;44.444;26.006;2022-12-10T05:17:41;37.17;;;21.63;;
46290;SDS011;32023;44.444;26.006;2022-12-10T05:20:43;35.17;;;22.38;;
46290;SDS011;32023;44.444;26.006;2022-12-10T05:23:18;35.08;;;21.52;;
46290;SDS011;32023;44.444;26.006;2022-12-10T05:36:48;42.90;;;25.10;;
46290;SDS011;32023;44.444;26.006;2022-12-10T05:45:26;54.85;;;23.73;;
46290;SDS011;32023;44.444;26.006;2022-12-10T05:48:28;38.28;;;22.50;;
46290;SDS011;32023;44.444;26.006;2022-12-10T05:51:15;43.53;;;23.38;;
46290;SDS011;32023;44.444;26.006;2022-12-10T05:54:14;35.58;;;22.38;;
46290;SDS011;32023;44.444;26.006;2022-12-10T05:59:45;36.97;;;22.25;;
46290;SDS011;32023;44.444;26.006;2022-12-10T06:02:27;35.50;;;21.45;;
46290;SDS011;32023;44.444;26.006;2022-12-10T06:15:47;36.88;;;22.60;;
46290;SDS011;32023;44.444;26.006;2022-12-10T06:24:24;31.20;;;20.77;;
46290;SDS011;32023;44.444;26.006;2022-12-10T06:26:59;31.67;;;20.95;;
46290;SDS011;32023;44.444;26.006;2022-12-10T06:29:26;37.97;;;21.45;;
46290;SDS011;32023;44.444;26.006;2022-12-10T06:34:40;35.55;;;22.92;;
46290;SDS011;32023;44.444;26.006;2022-12-10T06:37:17;38.65;;;22.23;;
46290;SDS011;32023;44.444;26.006;2022-12-10T06:42:27;32.63;;;21.10;;
46290;SDS011;32023;44.444;26.006;2022-12-10T06:44:57;38.13;;;23.35;;
46290;SDS011;32023;44.444;26.006;2022-12-10T06:47:28;32.40;;;20.70;;
46290;SDS011;32023;44.444;26.006;2022-12-10T06:53:08;31.98;;;21.10;;
46290;SDS011;32023;44.444;26.006;2022-12-10T06:55:36;33.40;;;20.63;;
46290;SDS011;32023;44.444;26.006;2022-12-10T06:58:03;33.53;;;21.40;;
46290;SDS011;32023;44.444;26.006;2022-12-10T07:09:50;29.73;;;19.30;;
46290;SDS011;32023;44.444;26.006;2022-12-10T07:12:19;25.85;;;19.42;;
46290;SDS011;32023;44.444;26.006;2022-12-10T07:17:48;27.10;;;18.63;;
46290;SDS011;32023;44.444;26.006;2022-12-10T07:20:16;29.40;;;18.23;;
46290;SDS011;32023;44.444;26.006;2022-12-10T07:22:43;26.58;;;16.98;;
46290;SDS011;32023;44.444;26.006;2022-12-10T07:25:09;26.42;;;16.65;;
46290;SDS011;32023;44.444;26.006;2022-12-10T07:27:39;26.67;;;16.73;;
46290;SDS011;32023;44.444;26.006;2022-12-10T07:30:14;30.85;;;16.92;;
46290;SDS011;32023;44.444;26.006;2022-12-10T07:35:53;24.00;;;16.55;;
46290;SDS011;32023;44.444;26.006;2022-12-10T07:38:26;27.02;;;16.92;;
46290;SDS011;32023;44.444;26.006;2022-12-10T07:50:45;27.55;;;17.60;;
46290;SDS011;32023;44.444;26.006;2022-12-10T07:53:11;23.52;;;16.30;;
46290;SDS011;32023;44.444;26.006;2022-12-10T07:58:46;26.10;;;17.67;;
46290;SDS011;32023;44.444;26.006;2022-12-10T08:07:55;26.67;;;18.20;;
46290;SDS011;32023;44.444;26.006;2022-12-10T08:10:22;30.27;;;18.90;;
46290;SDS011;32023;44.444;26.006;2022-12-10T08:28:32;25.13;;;18.05;;
46290;SDS011;32023;44.444;26.006;2022-12-10T08:31:40;32.75;;;18.52;;
46290;SDS011;32023;44.444;26.006;2022-12-10T08:50:50;28.33;;;17.92;;
46290;SDS011;32023;44.444;26.006;2022-12-10T08:53:22;28.35;;;20.42;;
46290;SDS011;32023;44.444;26.006;2022-12-10T08:55:55;32.15;;;21.35;;
46290;SDS011;32023;44.444;26.006;2022-12-10T08:58:39;29.40;;;20.20;;
46290;SDS011;32023;44.444;26.006;2022-12-10T09:01:47;28.40;;;18.27;;
46290;SDS011;32023;44.444;26.006;2022-12-10T09:04:18;27.73;;;17.88;;
46290;SDS011;32023;44.444;26.006;2022-12-10T09:16:11;22.80;;;17.63;;
46290;SDS011;32023;44.444;26.006;2022-12-10T09:18:41;23.48;;;17.88;;
46290;SDS011;32023;44.444;26.006;2022-12-10T09:21:09;24.75;;;16.63;;
46290;SDS011;32023;44.444;26.006;2022-12-10T09:26:44;23.48;;;17.60;;
46290;SDS011;32023;44.444;26.006;2022-12-10T09:31:49;29.35;;;17.67;;
46290;SDS011;32023;44.444;26.006;2022-12-10T09:34:27;22.25;;;16.65;;
46290;SDS011;32023;44.444;26.006;2022-12-10T09:36:56;24.73;;;16.63;;
46290;SDS011;32023;44.444;26.006;2022-12-10T09:39:23;32.55;;;17.42;;
46290;SDS011;32023;44.444;26.006;2022-12-10T09:47:24;30.42;;;17.90;;
46290;SDS011;32023;44.444;26.006;2022-12-10T09:50:04;25.58;;;17.73;;
46290;SDS011;32023;44.444;26.006;2022-12-10T09:52:45;24.20;;;17.33;;
46290;SDS011;32023;44.444;26.006;2022-12-10T09:57:58;32.50;;;18.35;;
46290;SDS011;32023;44.444;26.006;2022-12-10T10:00:32;34.30;;;18.70;;
46290;SDS011;32023;44.444;26.006;2022-12-10T10:03:00;31.27;;;19.25;;
46290;SDS011;32023;44.444;26.006;2022-12-10T10:05:38;28.20;;;19.75;;
46290;SDS011;32023;44.444;26.006;2022-12-10T10:08:20;32.42;;;18.70;;
46290;SDS011;32023;44.444;26.006;2022-12-10T10:11:18;29.17;;;19.48;;
46290;SDS011;32023;44.444;26.006;2022-12-10T10:13:51;32.33;;;18.90;;
46290;SDS011;32023;44.444;26.006;2022-12-10T10:16:32;28.02;;;18.67;;
46290;SDS011;32023;44.444;26.006;2022-12-10T10:21:54;26.38;;;17.92;;
46290;SDS011;32023;44.444;26.006;2022-12-10T10:27:28;25.50;;;18.40;;
46290;SDS011;32023;44.444;26.006;2022-12-10T10:30:00;25.85;;;18.33;;
46290;SDS011;32023;44.444;26.006;2022-12-10T10:35:45;23.58;;;16.60;;
46290;SDS011;32023;44.444;26.006;2022-12-10T10:43:59;29.73;;;19.83;;
46290;SDS011;32023;44.444;26.006;2022-12-10T10:46:28;34.63;;;21.58;;
46290;SDS011;32023;44.444;26.006;2022-12-10T10:52:06;40.15;;;20.13;;
46290;SDS011;32023;44.444;26.006;2022-12-10T10:55:01;30.25;;;21.38;;
46290;SDS011;32023;44.444;26.006;2022-12-10T10:57:36;31.35;;;20.15;;
46290;SDS011;32023;44.444;26.006;2022-12-10T11:00:28;29.55;;;20.02;;
46290;SDS011;32023;44.444;26.006;2022-12-10T11:02:54;38.95;;;20.67;;
46290;SDS011;32023;44.444;26.006;2022-12-10T11:05:26;35.80;;;20.77;;
46290;SDS011;32023;44.444;26.006;2022-12-10T11:08:06;31.52;;;20.52;;
46290;SDS011;32023;44.444;26.006;2022-12-10T11:13:37;31.30;;;20.50;;
46290;SDS011;32023;44.444;26.006;2022-12-10T11:19:02;31.10;;;20.60;;
46290;SDS011;32023;44.444;26.006;2022-12-10T11:21:34;37.05;;;22.80;;
46290;SDS011;32023;44.444;26.006;2022-12-10T11:24:24;35.20;;;23.45;;
46290;SDS011;32023;44.444;26.006;2022-12-10T11:36:33;20.25;;;16.52;;
46290;SDS011;32023;44.444;26.006;2022-12-10T11:51:38;23.45;;;15.02;;
46290;SDS011;32023;44.444;26.006;2022-12-10T11:57:48;19.65;;;16.48;;
46290;SDS011;32023;44.444;26.006;2022-12-10T12:00:26;26.55;;;16.13;;
46290;SDS011;32023;44.444;26.006;2022-12-10T12:06:11;22.17;;;15.77;;
46290;SDS011;32023;44.444;26.006;2022-12-10T12:08:57;21.55;;;15.40;;
46290;SDS011;32023;44.444;26.006;2022-12-10T12:14:46;21.73;;;14.95;;
46290;SDS011;32023;44.444;26.006;2022-12-10T12:17:38;26.65;;;15.73;;
46290;SDS011;32023;44.444;26.006;2022-12-10T12:20:15;32.88;;;15.57;;
46290;SDS011;32023;44.444;26.006;2022-12-10T12:23:00;23.63;;;16.95;;
46290;SDS011;32023;44.444;26.006;2022-12-10T12:25:49;26.92;;;17.10;;
46290;SDS011;32023;44.444;26.006;2022-12-10T12:28:40;32.85;;;18.08;;
46290;SDS011;32023;44.444;26.006;2022-12-10T12:31:20;30.80;;;18.60;;
46290;SDS011;32023;44.444;26.006;2022-12-10T12:34:05;39.83;;;22.85;;
46290;SDS011;32023;44.444;26.006;2022-12-10T12:36:52;24.70;;;16.02;;
46290;SDS011;32023;44.444;26.006;2022-12-10T12:39:32;22.95;;;14.63;;
46290;SDS011;32023;44.444;26.006;2022-12-10T12:47:34;26.10;;;15.13;;
46290;SDS011;32023;44.444;26.006;2022-12-10T12:50:15;34.35;;;17.27;;
46290;SDS011;32023;44.444;26.006;2022-12-10T12:52:53;27.45;;;16.65;;
46290;SDS011;32023;44.444;26.006;2022-12-10T12:55:27;25.42;;;16.10;;
46290;SDS011;32023;44.444;26.006;2022-12-10T13:00:45;33.22;;;17.52;;
46290;SDS011;32023;44.444;26.006;2022-12-10T13:18:38;21.33;;;11.40;;
46290;SDS011;32023;44.444;26.006;2022-12-10T13:21:29;23.55;;;10.95;;
46290;SDS011;32023;44.444;26.006;2022-12-10T13:24:18;24.40;;;13.30;;
46290;SDS011;32023;44.444;26.006;2022-12-10T13:29:55;23.23;;;12.10;;
46290;SDS011;32023;44.444;26.006;2022-12-10T13:35:16;23.52;;;11.85;;
46290;SDS011;32023;44.444;26.006;2022-12-10T13:46:30;36.53;;;16.23;;
46290;SDS011;32023;44.444;26.006;2022-12-10T13:49:05;24.25;;;13.27;;
46290;SDS011;32023;44.444;26.006;2022-12-10T14:00:43;37.70;;;22.08;;
46290;SDS011;32023;44.444;26.006;2022-12-10T14:06:18;25.67;;;12.90;;
46290;SDS011;32023;44.444;26.006;2022-12-10T14:08:57;29.20;;;14.48;;
46290;SDS011;32023;44.444;26.006;2022-12-10T14:14:16;28.70;;;14.40;;
46290;SDS011;32023;44.444;26.006;2022-12-10T14:16:59;44.05;;;18.65;;
46290;SDS011;32023;44.444;26.006;2022-12-10T14:23:20;28.02;;;16.35;;
46290;SDS011;32023;44.444;26.006;2022-12-10T14:28:45;31.40;;;15.00;;
46290;SDS011;32023;44.444;26.006;2022-12-10T14:34:31;25.50;;;13.10;;
46290;SDS011;32023;44.444;26.006;2022-12-10T14:37:01;28.02;;;13.07;;
46290;SDS011;32023;44.444;26.006;2022-12-10T14:39:31;23.92;;;12.80;;
46290;SDS011;32023;44.444;26.006;2022-12-10T14:45:00;38.25;;;18.58;;
46290;SDS011;32023;44.444;26.006;2022-12-10T14:47:36;86.55;;;28.40;;
46290;SDS011;32023;44.444;26.006;2022-12-10T14:50:10;39.30;;;17.98;;
46290;SDS011;32023;44.444;26.006;2022-12-10T14:52:57;24.58;;;14.52;;
46290;SDS011;32023;44.444;26.006;2022-12-10T14:55:25;28.77;;;13.40;;
46290;SDS011;32023;44.444;26.006;2022-12-10T14:57:59;26.20;;;13.07;;
46290;SDS011;32023;44.444;26.006;2022-12-10T15:00:30;29.58;;;14.38;;
46290;SDS011;32023;44.444;26.006;2022-12-10T15:03:02;24.73;;;14.27;;
46290;SDS011;32023;44.444;26.006;2022-12-10T15:05:37;42.15;;;17.58;;
46290;SDS011;32023;44.444;26.006;2022-12-10T15:08:12;30.90;;;14.57;;
46290;SDS011;32023;44.444;26.006;2022-12-10T15:10:50;26.73;;;13.77;;
46290;SDS011;32023;44.444;26.006;2022-12-10T15:13:40;30.90;;;14.35;;
46290;SDS011;32023;44.444;26.006;2022-12-10T15:16:16;35.35;;;14.82;;
46290;SDS011;32023;44.444;26.006;2022-12-10T15:18:50;42.60;;;21.55;;
46290;SDS011;32023;44.444;26.006;2022-12-10T15:21:20;33.83;;;15.85;;
46290;SDS011;32023;44.444;26.006;2022-12-10T15:23:59;31.35;;;14.20;;
46290;SDS011;32023;44.444;26.006;2022-12-10T15:36:43;41.47;;;18.77;;
46290;SDS011;32023;44.444;26.006;2022-12-10T15:39:20;34.78;;;18.27;;
46290;SDS011;32023;44.444;26.006;2022-12-10T15:48:08;43.17;;;19.15;;
46290;SDS011;32023;44.444;26.006;2022-12-10T15:50:38;58.15;;;31.88;;
46290;SDS011;32023;44.444;26.006;2022-12-10T15:53:10;46.22;;;23.08;;
46290;SDS011;32023;44.444;26.006;2022-12-10T15:55:39;37.90;;;19.15;;
46290;SDS011;32023;44.444;26.006;2022-12-10T15:58:11;51.78;;;25.25;;
46290;SDS011;32023;44.444;26.006;2022-12-10T16:00:39;45.50;;;20.63;;
46290;SDS011;32023;44.444;26.006;2022-12-10T16:03:12;32.88;;;15.80;;
46290;SDS011;32023;44.444;26.006;2022-12-10T16:05:46;31.08;;;16.95;;
46290;SDS011;32023;44.444;26.006;2022-12-10T16:08:22;170.93;;;75.50;;
46290;SDS011;32023;44.444;26.006;2022-12-10T16:11:00;48.35;;;23.75;;
46290;SDS011;32023;44.444;26.006;2022-12-10T16:13:36;45.92;;;22.30;;
46290;SDS011;32023;44.444;26.006;2022-12-10T16:16:10;43.55;;;21.35;;
46290;SDS011;32023;44.444;26.006;2022-12-10T16:18:39;42.55;;;21.45;;
46290;SDS011;32023;44.444;26.006;2022-12-10T16:27:16;46.45;;;24.35;;
46290;SDS011;32023;44.444;26.006;2022-12-10T16:29:47;45.72;;;23.98;;
46290;SDS011;32023;44.444;26.006;2022-12-10T16:32:16;52.97;;;31.58;;
46290;SDS011;32023;44.444;26.006;2022-12-10T16:34:47;72.13;;;36.30;;
46290;SDS011;32023;44.444;26.006;2022-12-10T16:37:34;73.43;;;38.50;;
46290;SDS011;32023;44.444;26.006;2022-12-10T16:40:22;86.38;;;48.25;;
46290;SDS011;32023;44.444;26.006;2022-12-10T16:42:55;111.72;;;62.78;;
46290;SDS011;32023;44.444;26.006;2022-12-10T16:45:42;104.18;;;61.30;;
46290;SDS011;32023;44.444;26.006;2022-12-10T16:48:09;130.02;;;68.85;;
46290;SDS011;32023;44.444;26.006;2022-12-10T16:50:39;109.70;;;57.47;;
46290;SDS011;32023;44.444;26.006;2022-12-10T16:53:21;93.93;;;52.33;;
46290;SDS011;32023;44.444;26.006;2022-12-10T16:58:46;120.50;;;66.57;;
46290;SDS011;32023;44.444;26.006;2022-12-10T17:01:21;146.60;;;96.07;;
46290;SDS011;32023;44.444;26.006;2022-12-10T17:03:49;120.40;;;67.63;;
46290;SDS011;32023;44.444;26.006;2022-12-10T17:06:16;86.13;;;49.60;;
46290;SDS011;32023;44.444;26.006;2022-12-10T17:08:43;89.78;;;50.67;;
46290;SDS011;32023;44.444;26.006;2022-12-10T17:11:14;80.57;;;43.78;;
46290;SDS011;32023;44.444;26.006;2022-12-10T17:14:00;66.30;;;36.35;;
46290;SDS011;32023;44.444;26.006;2022-12-10T17:16:27;71.15;;;36.78;;
46290;SDS011;32023;44.444;26.006;2022-12-10T17:18:56;61.60;;;33.45;;
46290;SDS011;32023;44.444;26.006;2022-12-10T17:24:28;62.75;;;30.85;;
46290;SDS011;32023;44.444;26.006;2022-12-10T17:26:55;69.60;;;36.35;;
46290;SDS011;32023;44.444;26.006;2022-12-10T17:32:03;59.70;;;32.35;;
46290;SDS011;32023;44.444;26.006;2022-12-10T17:34:30;66.28;;;31.08;;
46290;SDS011;32023;44.444;26.006;2022-12-10T17:36:59;72.18;;;34.67;;
46290;SDS011;32023;44.444;26.006;2022-12-10T17:39:25;49.33;;;28.55;;
46290;SDS011;32023;44.444;26.006;2022-12-10T17:41:56;60.90;;;31.92;;
46290;SDS011;32023;44.444;26.006;2022-12-10T17:44:23;77.07;;;39.00;;
46290;SDS011;32023;44.444;26.006;2022-12-10T17:47:13;66.03;;;34.40;;
46290;SDS011;32023;44.444;26.006;2022-12-10T17:52:23;44.95;;;24.08;;
46290;SDS011;32023;44.444;26.006;2022-12-10T17:54:51;46.85;;;24.17;;
46290;SDS011;32023;44.444;26.006;2022-12-10T17:57:18;42.47;;;22.48;;
46290;SDS011;32023;44.444;26.006;2022-12-10T17:59:47;49.83;;;26.23;;
46290;SDS011;32023;44.444;26.006;2022-12-10T18:02:13;53.95;;;27.73;;
46290;SDS011;32023;44.444;26.006;2022-12-10T18:04:40;59.15;;;31.45;;
46290;SDS011;32023;44.444;26.006;2022-12-10T18:07:10;58.70;;;32.42;;
46290;SDS011;32023;44.444;26.006;2022-12-10T18:09:38;55.45;;;29.60;;
46290;SDS011;32023;44.444;26.006;2022-12-10T18:15:04;52.67;;;29.95;;
46290;SDS011;32023;44.444;26.006;2022-12-10T18:17:31;53.05;;;29.70;;
46290;SDS011;32023;44.444;26.006;2022-12-10T18:20:00;59.85;;;31.77;;
46290;SDS011;32023;44.444;26.006;2022-12-10T18:22:34;55.08;;;30.52;;
46290;SDS011;32023;44.444;26.006;2022-12-10T18:25:01;56.70;;;30.90;;
46290;SDS011;32023;44.444;26.006;2022-12-10T18:27:30;54.13;;;31.70;;
46290;SDS011;32023;44.444;26.006;2022-12-10T18:29:56;66.32;;;32.65;;
46290;SDS011;32023;44.444;26.006;2022-12-10T18:32:25;65.07;;;35.80;;
46290;SDS011;32023;44.444;26.006;2022-12-10T18:34:52;61.90;;;35.72;;
46290;SDS011;32023;44.444;26.006;2022-12-10T18:37:23;70.28;;;36.33;;
46290;SDS011;32023;44.444;26.006;2022-12-10T18:39:50;60.88;;;35.17;;
46290;SDS011;32023;44.444;26.006;2022-12-10T18:42:27;54.90;;;34.45;;
46290;SDS011;32023;44.444;26.006;2022-12-10T18:47:44;57.92;;;34.45;;
46290;SDS011;32023;44.444;26.006;2022-12-10T18:50:21;56.80;;;34.22;;
46290;SDS011;32023;44.444;26.006;2022-12-10T18:52:57;67.60;;;36.85;;
46290;SDS011;32023;44.444;26.006;2022-12-10T18:55:26;63.50;;;38.80;;
46290;SDS011;32023;44.444;26.006;2022-12-10T18:57:57;62.38;;;37.65;;
46290;SDS011;32023;44.444;26.006;2022-12-10T19:00:44;53.20;;;32.30;;
46290;SDS011;32023;44.444;26.006;2022-12-10T19:06:05;61.95;;;37.97;;
46290;SDS011;32023;44.444;26.006;2022-12-10T19:08:51;55.00;;;34.40;;
46290;SDS011;32023;44.444;26.006;2022-12-10T19:11:25;67.95;;;39.22;;
46290;SDS011;32023;44.444;26.006;2022-12-10T19:14:15;72.15;;;37.92;;
46290;SDS011;32023;44.444;26.006;2022-12-10T19:16:55;66.95;;;40.80;;
46290;SDS011;32023;44.444;26.006;2022-12-10T19:19:25;68.53;;;38.63;;
46290;SDS011;32023;44.444;26.006;2022-12-10T19:27:29;75.88;;;39.15;;
46290;SDS011;32023;44.444;26.006;2022-12-10T19:29:57;66.40;;;38.47;;
46290;SDS011;32023;44.444;26.006;2022-12-10T19:35:46;70.93;;;39.47;;
46290;SDS011;32023;44.444;26.006;2022-12-10T19:38:13;87.22;;;46.60;;
46290;SDS011;32023;44.444;26.006;2022-12-10T19:40:42;65.90;;;40.25;;
46290;SDS011;32023;44.444;26.006;2022-12-10T19:43:08;64.78;;;38.90;;
46290;SDS011;32023;44.444;26.006;2022-12-10T19:45:40;77.95;;;43.28;;
46290;SDS011;32023;44.444;26.006;2022-12-10T19:48:16;73.60;;;42.72;;
46290;SDS011;32023;44.444;26.006;2022-12-10T19:50:45;74.47;;;41.90;;
46290;SDS011;32023;44.444;26.006;2022-12-10T19:53:23;71.80;;;44.55;;
46290;SDS011;32023;44.444;26.006;2022-12-10T19:55:50;78.82;;;44.83;;
46290;SDS011;32023;44.444;26.006;2022-12-10T19:58:17;84.20;;;48.65;;
46290;SDS011;32023;44.444;26.006;2022-12-10T20:00:44;80.43;;;46.42;;
46290;SDS011;32023;44.444;26.006;2022-12-10T20:03:16;79.47;;;46.78;;
46290;SDS011;32023;44.444;26.006;2022-12-10T20:05:51;73.53;;;44.95;;
46290;SDS011;32023;44.444;26.006;2022-12-10T20:08:25;74.22;;;41.70;;
46290;SDS011;32023;44.444;26.006;2022-12-10T20:10:51;72.55;;;42.22;;
46290;SDS011;32023;44.444;26.006;2022-12-10T20:13:26;65.75;;;38.75;;
46290;SDS011;32023;44.444;26.006;2022-12-10T20:15:56;72.18;;;40.47;;
46290;SDS011;32023;44.444;26.006;2022-12-10T20:18:38;70.20;;;39.72;;
46290;SDS011;32023;44.444;26.006;2022-12-10T20:21:04;73.57;;;41.05;;
46290;SDS011;32023;44.444;26.006;2022-12-10T20:23:31;74.30;;;45.13;;
46290;SDS011;32023;44.444;26.006;2022-12-10T20:26:02;78.38;;;44.58;;
46290;SDS011;32023;44.444;26.006;2022-12-10T20:28:31;78.40;;;45.13;;
46290;SDS011;32023;44.444;26.006;2022-12-10T20:30:57;72.32;;;41.58;;
46290;SDS011;32023;44.444;26.006;2022-12-10T20:33:23;67.90;;;38.67;;
46290;SDS011;32023;44.444;26.006;2022-12-10T20:35:50;61.42;;;36.67;;
46290;SDS011;32023;44.444;26.006;2022-12-10T20:38:17;58.60;;;36.10;;
46290;SDS011;32023;44.444;26.006;2022-12-10T20:40:43;61.83;;;35.72;;
46290;SDS011;32023;44.444;26.006;2022-12-10T20:43:22;65.40;;;36.92;;
46290;SDS011;32023;44.444;26.006;2022-12-10T20:45:56;63.35;;;35.45;;
46290;SDS011;32023;44.444;26.006;2022-12-10T20:48:33;62.15;;;35.35;;
46290;SDS011;32023;44.444;26.006;2022-12-10T20:50:59;63.67;;;35.58;;
46290;SDS011;32023;44.444;26.006;2022-12-10T20:53:25;57.17;;;33.53;;
46290;SDS011;32023;44.444;26.006;2022-12-10T20:55:52;54.88;;;34.38;;
46290;SDS011;32023;44.444;26.006;2022-12-10T21:03:30;58.92;;;33.97;;
46290;SDS011;32023;44.444;26.006;2022-12-10T21:06:03;63.45;;;34.17;;
46290;SDS011;32023;44.444;26.006;2022-12-10T21:08:31;65.15;;;35.35;;
46290;SDS011;32023;44.444;26.006;2022-12-10T21:10:58;62.97;;;35.53;;
46290;SDS011;32023;44.444;26.006;2022-12-10T21:13:25;63.22;;;33.75;;
46290;SDS011;32023;44.444;26.006;2022-12-10T21:15:58;54.13;;;30.00;;
46290;SDS011;32023;44.444;26.006;2022-12-10T21:18:25;48.78;;;28.98;;
46290;SDS011;32023;44.444;26.006;2022-12-10T21:20:52;42.92;;;28.45;;
46290;SDS011;32023;44.444;26.006;2022-12-10T21:23:24;50.90;;;28.48;;
46290;SDS011;32023;44.444;26.006;2022-12-10T21:25:54;50.10;;;30.20;;
46290;SDS011;32023;44.444;26.006;2022-12-10T21:30:51;49.38;;;26.63;;
46290;SDS011;32023;44.444;26.006;2022-12-10T21:33:22;43.45;;;26.48;;
46290;SDS011;32023;44.444;26.006;2022-12-10T21:35:50;50.38;;;27.63;;
46290;SDS011;32023;44.444;26.006;2022-12-10T21:40:55;54.10;;;27.27;;
46290;SDS011;32023;44.444;26.006;2022-12-10T21:43:23;46.83;;;28.73;;
46290;SDS011;32023;44.444;26.006;2022-12-10T21:45:54;55.67;;;29.00;;
46290;SDS011;32023;44.444;26.006;2022-12-10T21:48:25;52.97;;;30.30;;
46290;SDS011;32023;44.444;26.006;2022-12-10T21:50:57;56.10;;;29.38;;
46290;SDS011;32023;44.444;26.006;2022-12-10T21:53:34;52.17;;;28.48;;
46290;SDS011;32023;44.444;26.006;2022-12-10T21:56:07;50.60;;;28.73;;
46290;SDS011;32023;44.444;26.006;2022-12-10T21:58:34;50.33;;;28.17;;
46290;SDS011;32023;44.444;26.006;2022-12-10T22:01:02;51.67;;;30.02;;
46290;SDS011;32023;44.444;26.006;2022-12-10T22:03:29;53.65;;;30.45;;
46290;SDS011;32023;44.444;26.006;2022-12-10T22:05:56;51.83;;;33.97;;
46290;SDS011;32023;44.444;26.006;2022-12-10T22:08:23;47.65;;;30.58;;
46290;SDS011;32023;44.444;26.006;2022-12-10T22:10:49;50.50;;;29.13;;
46290;SDS011;32023;44.444;26.006;2022-12-10T22:13:16;53.47;;;29.30;;
46290;SDS011;32023;44.444;26.006;2022-12-10T22:15:43;51.65;;;29.58;;
46290;SDS011;32023;44.444;26.006;2022-12-10T22:18:11;47.70;;;29.15;;
46290;SDS011;32023;44.444;26.006;2022-12-10T22:20:38;58.92;;;30.48;;
46290;SDS011;32023;44.444;26.006;2022-12-10T22:23:06;50.25;;;30.55;;
46290;SDS011;32023;44.444;26.006;2022-12-10T22:25:33;56.05;;;30.55;;
46290;SDS011;32023;44.444;26.006;2022-12-10T22:28:03;52.55;;;31.17;;
46290;SDS011;32023;44.444;26.006;2022-12-10T22:30:30;51.35;;;30.60;;
46290;SDS011;32023;44.444;26.006;2022-12-10T22:32:56;46.58;;;30.05;;
46290;SDS011;32023;44.444;26.006;2022-12-10T22:35:22;54.53;;;30.33;;
46290;SDS011;32023;44.444;26.006;2022-12-10T22:37:51;47.65;;;28.65;;
46290;SDS011;32023;44.444;26.006;2022-12-10T22:40:21;51.28;;;29.83;;
46290;SDS011;32023;44.444;26.006;2022-12-10T22:42:47;52.05;;;30.48;;
46290;SDS011;32023;44.444;26.006;2022-12-10T22:45:16;48.92;;;29.30;;
46290;SDS011;32023;44.444;26.006;2022-12-10T22:51:12;50.67;;;29.60;;
46290;SDS011;32023;44.444;26.006;2022-12-10T22:56:21;58.22;;;31.77;;
46290;SDS011;32023;44.444;26.006;2022-12-10T22:58:52;51.22;;;27.75;;
46290;SDS011;32023;44.444;26.006;2022-12-10T23:01:25;54.50;;;29.48;;
46290;SDS011;32023;44.444;26.006;2022-12-10T23:03:52;49.10;;;29.38;;
46290;SDS011;32023;44.444;26.006;2022-12-10T23:06:21;51.80;;;29.08;;
46290;SDS011;32023;44.444;26.006;2022-12-10T23:08:48;46.65;;;27.83;;
46290;SDS011;32023;44.444;26.006;2022-12-10T23:11:15;54.53;;;28.58;;
46290;SDS011;32023;44.444;26.006;2022-12-10T23:13:42;51.50;;;28.52;;
46290;SDS011;32023;44.444;26.006;2022-12-10T23:18:41;50.80;;;29.00;;
46290;SDS011;32023;44.444;26.006;2022-12-10T23:21:19;45.42;;;27.45;;
46290;SDS011;32023;44.444;26.006;2022-12-10T23:23:48;46.63;;;28.95;;
46290;SDS011;32023;44.444;26.006;2022-12-10T23:26:15;46.10;;;28.92;;
46290;SDS011;32023;44.444;26.006;2022-12-10T23:28:42;53.40;;;29.65;;
46290;SDS011;32023;44.444;26.006;2022-12-10T23:31:11;59.28;;;30.88;;
46290;SDS011;32023;44.444;26.006;2022-12-10T23:33:38;61.08;;;29.83;;
46290;SDS011;32023;44.444;26.006;2022-12-10T23:36:05;52.63;;;30.65;;
46290;SDS011;32023;44.444;26.006;2022-12-10T23:38:33;52.72;;;29.30;;
46290;SDS011;32023;44.444;26.006;2022-12-10T23:41:04;50.67;;;32.05;;
46290;SDS011;32023;44.444;26.006;2022-12-10T23:43:41;58.05;;;34.67;;
46290;SDS011;32023;44.444;26.006;2022-12-10T23:46:08;56.17;;;33.55;;
46290;SDS011;32023;44.444;26.006;2022-12-10T23:48:34;58.85;;;31.80;;
46290;SDS011;32023;44.444;26.006;2022-12-10T23:51:00;53.45;;;30.15;;
46290;SDS011;32023;44.444;26.006;2022-12-10T23:53:29;49.30;;;29.13;;
46290;SDS011;32023;44.444;26.006;2022-12-10T23:55:57;51.70;;;28.58;;